Main page
METAR-TAF:

METAR-TAF

Airports :

Marseille Provence Airport

Marseille, France

latitude: 43-27N, longitude: 005-14E, elevation: 6 m

Current weather observation

The report was made 43 minutes ago, at 23:30 UTC
Wind 7 kt from the Northwest
Temperature 6°C
Humidity 87%
Pressure 1009 hPa
Visibility 10 km or more
no clouds below 1500 m and no cumulonimbus

METAR: LFML 172330Z AUTO 32007KT CAVOK 06/04 Q1009 NOSIG

Time: 01:13 (00:13 UTC)

Forecast

The report was made 4 hours and 13 minutes ago, at 20:00 UTC
Forecast valid from 17 at 21 UTC to 19 at 03 UTC
Wind 2 kt from variable directions
Visibility 10 km or more
no clouds below 1500 m and no cumulonimbus
Becoming
from 18 at 16 UTC to 18 at 18 UTC
Wind 10 kt from the North/Northwest
Temporary
from 18 at 16 UTC to 19 at 03 UTC
rain

TAF: LFML 172000Z 1721/1903 VRB02KT CAVOK TX11/1804Z TN02/1804Z BECMG 1816/1818 34010KT TEMPO 1816/1903 RA

Weather observations and forecasts of more than 4000 airports (METAR and TAF reports).

The available stations are represented by yellow and red dots on the map.

Hover mouse over dot to see the name of the station.

Then click to see weather observations and forecasts.

To change the map : click on the green buttons with a black cross to zoom in, on the green button with a dash to zoom out, or on the green arrows for adjacent maps.


METAR-TAF: